Time;durP1;ratioP1;P1;durP2;ratioP2;P2;SDS_P1;SDS_P2;PMS_P1;PMS_P2;Temp;Humidity;BMP_temperature;BMP_pressure;BME280_temperature;BME280_humidity;BME280_pressure;Samples;Min_cycle;Max_cycle;Signal;HPM_P1;HPM_P2
2023/01/04 00:01:22;;;;;;;5.38;1.73;;;;;;;8.35;89.04;101896.00;4889191;29;20124;-70
2023/01/04 00:03:50;;;;;;;7.32;1.60;;;;;;;8.37;89.03;101892.53;4883768;29;20081;-71
2023/01/04 00:06:18;;;;;;;4.78;1.50;;;;;;;8.38;88.92;101891.66;4893710;29;20044;-71
2023/01/04 00:08:46;;;;;;;8.77;1.73;;;;;;;8.40;88.96;101883.75;4881876;29;20048;-72
2023/01/04 00:11:18;;;;;;;7.05;1.50;;;;;;;8.42;89.13;101881.09;4877254;29;20096;-70
2023/01/04 00:13:48;;;;;;;7.45;1.92;;;;;;;8.42;89.41;101878.47;4882316;29;20511;-70
2023/01/04 00:16:22;;;;;;;7.55;1.98;;;;;;;8.39;89.49;101871.50;4881570;29;20068;-71
2023/01/04 00:18:51;;;;;;;10.80;2.13;;;;;;;8.37;89.88;101870.63;4877926;29;20140;-71
2023/01/04 00:21:29;;;;;;;5.85;1.50;;;;;;;8.35;89.98;101860.13;4876538;29;20132;-71
2023/01/04 00:23:59;;;;;;;6.60;1.80;;;;;;;8.32;90.56;101851.38;4878991;29;20529;-69
2023/01/04 00:26:32;;;;;;;7.55;2.03;;;;;;;8.31;90.65;101855.75;4890760;29;20048;-70
2023/01/04 00:29:04;;;;;;;7.18;1.98;;;;;;;8.29;91.10;101848.75;4888523;29;20779;-74
2023/01/04 00:31:33;;;;;;;6.70;1.63;;;;;;;8.29;91.31;101843.50;4872193;29;20054;-73
2023/01/04 00:34:04;;;;;;;6.80;1.95;;;;;;;8.28;91.47;101847.00;4864859;29;20864;-71
2023/01/04 00:36:32;;;;;;;6.82;1.92;;;;;;;8.26;91.81;101846.13;4889255;29;20045;-72
2023/01/04 00:39:08;;;;;;;5.90;1.95;;;;;;;8.26;91.88;101833.00;4887243;29;20098;-72
2023/01/04 00:41:42;;;;;;;7.93;1.73;;;;;;;8.28;92.00;101837.41;4891183;29;20043;-71
2023/01/04 00:44:28;;;;;;;8.52;2.53;;;;;;;8.26;92.50;101833.00;4874251;29;20054;-71
2023/01/04 00:46:55;;;;;;;5.50;1.63;;;;;;;8.26;92.67;101822.50;4879829;29;20053;-72
2023/01/04 00:49:23;;;;;;;10.35;2.20;;;;;;;8.24;93.02;101814.63;4884434;29;20045;-72
2023/01/04 00:51:51;;;;;;;4.75;1.80;;;;;;;8.23;93.18;101800.63;4887820;29;20746;-72
2023/01/04 00:54:19;;;;;;;7.35;2.03;;;;;;;8.24;93.40;101809.38;4880742;29;20050;-72
2023/01/04 00:56:47;;;;;;;8.82;2.13;;;;;;;8.23;93.52;101803.28;4892187;29;20048;-72
2023/01/04 00:59:18;;;;;;;6.40;1.30;;;;;;;8.23;93.62;101794.50;4877586;29;20045;-71
2023/01/04 01:01:46;;;;;;;6.43;1.67;;;;;;;8.22;93.94;101783.13;4888784;29;20049;-71
2023/01/04 01:04:17;;;;;;;6.72;1.80;;;;;;;8.23;94.35;101781.34;4892283;29;20048;-70
2023/01/04 01:06:46;;;;;;;9.52;2.10;;;;;;;8.22;94.44;101779.59;4890348;29;20121;-69
2023/01/04 01:09:14;;;;;;;7.88;1.92;;;;;;;8.22;94.50;101771.72;4891292;29;20063;-69
2023/01/04 01:11:41;;;;;;;8.75;2.22;;;;;;;8.21;94.69;101767.34;4885430;29;20061;-70
2023/01/04 01:14:17;;;;;;;7.70;2.17;;;;;;;8.21;95.06;101770.88;4892275;29;20041;-70
2023/01/04 01:16:45;;;;;;;7.43;1.77;;;;;;;8.19;95.03;101767.38;4886704;29;20053;-70
2023/01/04 01:19:28;;;;;;;6.13;2.25;;;;;;;8.19;95.33;101764.75;4880212;29;20041;-70
2023/01/04 01:21:56;;;;;;;6.10;2.00;;;;;;;8.20;95.49;101773.50;4874116;29;20431;-70
2023/01/04 01:24:25;;;;;;;8.63;2.03;;;;;;;8.21;95.66;101764.72;4881224;29;20504;-67
2023/01/04 01:26:52;;;;;;;6.00;1.70;;;;;;;8.22;95.81;101766.47;4891539;29;20053;-68
2023/01/04 01:29:19;;;;;;;5.60;1.73;;;;;;;8.23;96.12;101761.22;4887838;29;20569;-68
2023/01/04 01:31:46;;;;;;;8.38;2.03;;;;;;;8.24;96.05;101754.22;4889620;29;20518;-68
2023/01/04 01:34:13;;;;;;;5.88;1.90;;;;;;;8.24;96.05;101755.06;4891125;29;20041;-66
2023/01/04 01:36:42;;;;;;;4.95;1.70;;;;;;;8.26;96.46;101748.94;4887684;29;20872;-67
2023/01/04 01:39:09;;;;;;;7.47;1.98;;;;;;;8.26;96.64;101739.31;4878392;29;20045;-70
2023/01/04 01:41:37;;;;;;;6.25;1.92;;;;;;;8.28;96.76;101734.03;4874377;29;20041;-69
2023/01/04 01:44:41;;;;;;;6.57;1.70;;;;;;;8.29;96.56;101728.78;4889083;29;20045;-70
2023/01/04 01:47:24;;;;;;;6.60;1.80;;;;;;;8.32;96.94;101722.66;4886278;29;20049;-70
2023/01/04 01:49:53;;;;;;;3.40;1.58;;;;;;;8.31;97.16;101727.00;4888773;29;20053;-70
2023/01/04 01:52:29;;;;;;;5.28;1.73;;;;;;;8.33;97.26;101725.25;4886306;29;20055;-70
2023/01/04 01:55:03;;;;;;;4.07;1.73;;;;;;;8.35;97.30;101731.38;4884964;29;20076;-71
2023/01/04 01:57:35;;;;;;;4.57;1.60;;;;;;;8.37;97.59;101721.72;4882504;29;20845;-70
2023/01/04 02:00:11;;;;;;;6.15;1.73;;;;;;;8.41;97.40;101722.59;4884490;29;20513;-70
2023/01/04 02:02:54;;;;;;;2.15;1.40;;;;;;;8.40;97.62;101705.91;4889476;29;20186;-71
2023/01/04 02:05:22;;;;;;;6.65;1.40;;;;;;;8.42;97.78;101713.81;4886587;29;20962;-70
2023/01/04 02:07:50;;;;;;;3.50;1.42;;;;;;;8.45;97.88;101703.25;4875177;29;20259;-69
2023/01/04 02:10:17;;;;;;;7.57;1.70;;;;;;;8.48;97.79;101716.41;4882652;29;20054;-69
2023/01/04 02:12:45;;;;;;;4.30;1.40;;;;;;;8.51;97.92;101710.25;4883144;29;20175;-69
2023/01/04 02:15:13;;;;;;;3.92;1.30;;;;;;;8.55;98.04;101701.47;4890143;29;20041;-69
2023/01/04 02:18:04;;;;;;;2.83;1.25;;;;;;;8.58;98.32;101705.84;4874932;29;20042;-70
2023/01/04 02:20:46;;;;;;;4.95;1.33;;;;;;;8.60;98.17;101704.94;4888059;29;20053;-69
2023/01/04 02:23:52;;;;;;;3.92;1.40;;;;;;;8.61;98.22;101700.56;4890585;29;20774;-70
2023/01/04 02:27:17;;;;;;;3.03;1.40;;;;;;;8.62;98.44;101695.28;4887098;29;20057;-69
2023/01/04 02:30:12;;;;;;;3.08;1.63;;;;;;;8.64;98.38;101700.53;4887438;29;20125;-69
2023/01/04 02:32:55;;;;;;;3.00;1.65;;;;;;;8.64;98.41;101698.78;4886126;29;20525;-69
2023/01/04 02:35:43;;;;;;;3.00;1.40;;;;;;;8.67;98.36;101696.13;4889062;29;20049;-70
2023/01/04 02:38:15;;;;;;;5.80;1.52;;;;;;;8.67;98.64;101692.59;4882264;29;20156;-69
2023/01/04 02:40:53;;;;;;;3.45;1.50;;;;;;;8.69;98.45;101688.22;4885998;29;20052;-69
2023/01/04 02:46:34;;;;;;;2.33;1.20;;;;;;;8.70;98.69;101664.53;4890351;29;20041;-68
2023/01/04 02:51:47;;;;;;;6.80;1.45;;;;;;;8.69;98.90;101665.44;4883860;29;20053;-69
2023/01/04 02:54:26;;;;;;;3.50;1.17;;;;;;;8.70;99.05;101654.00;4894144;29;20049;-68
2023/01/04 02:57:23;;;;;;;5.22;1.67;;;;;;;8.74;99.07;101641.75;4886271;29;20553;-68
2023/01/04 03:00:09;;;;;;;2.15;1.30;;;;;;;8.71;98.81;101639.13;4882153;29;20106;-69
2023/01/04 03:06:17;;;;;;;2.75;1.30;;;;;;;8.74;99.31;101641.75;4890279;29;20105;-70
2023/01/04 03:09:10;;;;;;;4.72;1.20;;;;;;;8.74;99.42;101628.59;4892444;29;20140;-70
2023/01/04 03:14:59;;;;;;;3.00;1.20;;;;;;;8.77;99.48;101622.44;4878900;29;20048;-70
2023/01/04 03:17:37;;;;;;;2.90;1.25;;;;;;;8.80;99.56;101609.25;4876929;29;20140;-70
2023/01/04 03:20:08;;;;;;;3.80;1.00;;;;;;;8.83;99.71;101612.72;4891599;29;20045;-70
2023/01/04 03:37:17;;;;;;;2.33;0.98;;;;;;;9.01;99.50;101581.84;4889606;29;20045;-69
2023/01/04 03:49:44;;;;;;;2.05;0.90;;;;;;;9.11;99.30;101579.94;4878143;29;20049;-71
2023/01/04 03:52:14;;;;;;;3.55;0.90;;;;;;;9.12;99.54;101577.31;4885357;29;20085;-70
2023/01/04 03:54:48;;;;;;;4.35;0.80;;;;;;;9.15;99.60;101568.50;4882131;29;20052;-71
2023/01/04 03:57:16;;;;;;;1.30;0.80;;;;;;;9.18;99.60;101568.47;4876949;29;20049;-71
2023/01/04 03:59:55;;;;;;;2.05;0.73;;;;;;;9.20;99.64;101555.28;4887155;29;20125;-70
2023/01/04 04:02:27;;;;;;;1.33;0.80;;;;;;;9.22;99.53;101551.75;4887157;29;20049;-71
2023/01/04 04:10:26;;;;;;;0.90;0.80;;;;;;;9.28;99.32;101551.69;4884132;29;20106;-70
2023/01/04 04:12:53;;;;;;;2.35;0.90;;;;;;;9.29;99.43;101539.38;4884494;29;20053;-70
2023/01/04 04:15:20;;;;;;;1.52;1.00;;;;;;;9.31;99.37;101548.13;4888514;29;20531;-69
2023/01/04 04:17:47;;;;;;;1.80;1.17;;;;;;;9.31;99.42;101546.34;4887802;29;20056;-70
2023/01/04 04:20:15;;;;;;;0.98;0.85;;;;;;;9.35;99.38;101533.16;4893614;29;20052;-70
2023/01/04 04:22:42;;;;;;;1.27;0.98;;;;;;;9.35;99.37;101541.94;4880197;29;20149;-69
2023/01/04 04:25:09;;;;;;;1.55;0.90;;;;;;;9.37;99.31;101547.19;4884520;29;20045;-69
2023/01/04 04:27:36;;;;;;;1.92;0.90;;;;;;;9.37;99.38;101539.28;4886475;29;20045;-69
2023/01/04 04:30:04;;;;;;;1.85;1.00;;;;;;;9.41;99.63;101543.63;4885061;29;20045;-66
2023/01/04 04:32:31;;;;;;;1.60;0.98;;;;;;;9.42;99.30;101540.97;4885619;29;20049;-73
2023/01/04 04:34:58;;;;;;;2.20;1.08;;;;;;;9.42;99.48;101529.53;4882652;29;20537;-73
2023/01/04 04:37:27;;;;;;;3.65;1.00;;;;;;;9.41;99.38;101531.31;4890832;29;20637;-73
2023/01/04 04:39:54;;;;;;;1.98;0.88;;;;;;;9.43;99.55;101533.91;4884221;29;20049;-73
2023/01/04 04:42:21;;;;;;;1.33;0.95;;;;;;;9.45;99.29;101519.88;4889121;29;20070;-74
2023/01/04 04:44:48;;;;;;;0.90;0.80;;;;;;;9.47;99.32;101522.47;4880072;29;20126;-71
2023/01/04 04:47:15;;;;;;;2.28;0.98;;;;;;;9.47;99.25;101515.44;4886822;29;20048;-71
2023/01/04 04:49:42;;;;;;;1.30;0.82;;;;;;;9.47;99.55;101519.84;4885773;29;20052;-71
2023/01/04 04:52:09;;;;;;;2.85;1.15;;;;;;;9.46;99.37;101513.69;4891075;29;20522;-71
2023/01/04 04:54:36;;;;;;;1.35;0.85;;;;;;;9.46;99.54;101518.09;4886767;29;20092;-71
2023/01/04 04:57:03;;;;;;;3.35;1.30;;;;;;;9.49;99.65;101518.06;4889885;29;20044;-73
2023/01/04 04:59:30;;;;;;;1.13;0.95;;;;;;;9.50;99.67;101514.53;4884191;29;20692;-73
2023/01/04 05:01:58;;;;;;;2.13;1.13;;;;;;;9.52;99.78;101514.50;4892947;29;20124;-73
2023/01/04 05:04:25;;;;;;;1.70;1.15;;;;;;;9.54;99.94;101516.22;4879786;29;20041;-73
2023/01/04 05:06:52;;;;;;;2.40;1.20;;;;;;;9.54;99.98;101518.84;4884535;29;20102;-70
2023/01/04 05:09:19;;;;;;;3.08;1.10;;;;;;;9.54;99.82;101524.09;4879608;29;20045;-70
2023/01/04 05:14:31;;;;;;;2.22;1.17;;;;;;;9.58;100.00;101517.91;4887449;29;20076;-71
2023/01/04 05:16:58;;;;;;;4.95;1.40;;;;;;;9.59;100.00;101516.13;4881657;29;20081;-71
2023/01/04 05:19:25;;;;;;;1.77;1.17;;;;;;;9.59;100.00;101511.75;4891215;29;20045;-71
2023/01/04 05:21:52;;;;;;;2.63;1.75;;;;;;;9.60;100.00;101499.44;4892187;29;20145;-71
2023/01/04 05:24:19;;;;;;;2.50;1.25;;;;;;;9.61;99.98;101504.69;4880112;29;20123;-70
2023/01/04 05:26:46;;;;;;;2.00;1.42;;;;;;;9.64;100.00;101503.78;4879031;29;20117;-70
2023/01/04 05:30:49;;;;;;;2.13;1.42;;;;;;;9.67;100.00;101505.50;4882709;29;20053;-70
2023/01/04 05:32:00;;;;;;;1.80;1.40;;;;;;;9.69;100.00;101482.66;4891451;29;20104;-73
2023/01/04 05:34:27;;;;;;;2.95;1.50;;;;;;;9.71;100.00;101486.13;4875915;29;20117;-72
2023/01/04 05:36:54;;;;;;;4.78;1.80;;;;;;;9.72;100.00;101485.22;4883127;29;20064;-72
2023/01/04 05:39:21;;;;;;;1.90;1.48;;;;;;;9.76;100.00;101484.28;4891966;29;20049;-72
2023/01/04 05:44:34;;;;;;;2.70;1.50;;;;;;;9.80;100.00;101475.44;4890922;29;20552;-73
2023/01/04 05:47:01;;;;;;;2.60;1.88;;;;;;;9.82;100.00;101465.72;4886410;29;20049;-72
2023/01/04 05:49:28;;;;;;;5.60;1.95;;;;;;;9.82;100.00;101473.63;4887708;29;20165;-72
2023/01/04 05:51:55;;;;;;;2.67;1.80;;;;;;;9.83;100.00;101467.47;4885780;29;20057;-70
2023/01/04 05:54:22;;;;;;;3.80;1.80;;;;;;;9.85;100.00;101457.78;4880617;29;20073;-69
2023/01/04 05:56:49;;;;;;;4.75;2.13;;;;;;;9.87;100.00;101445.47;4878901;29;20048;-68
2023/01/04 05:59:16;;;;;;;2.65;1.90;;;;;;;9.86;100.00;101443.72;4880079;29;20052;-73
2023/01/04 06:01:43;;;;;;;4.15;1.98;;;;;;;9.92;100.00;101440.97;4882545;29;20037;-73
2023/01/04 06:04:10;;;;;;;3.45;1.90;;;;;;;9.93;99.82;101447.97;4882295;29;20056;-74
2023/01/04 06:06:38;;;;;;;2.33;1.70;;;;;;;9.94;100.00;101452.34;4885902;29;20055;-71
2023/01/04 06:09:05;;;;;;;3.90;2.13;;;;;;;9.95;100.00;101447.97;4882361;29;20042;-71
2023/01/04 06:11:32;;;;;;;4.05;2.00;;;;;;;9.97;100.00;101438.25;4880115;29;20042;-71
2023/01/04 06:13:59;;;;;;;4.68;1.98;;;;;;;9.97;100.00;101434.78;4888042;29;20049;-70
2023/01/04 06:16:26;;;;;;;4.32;2.00;;;;;;;9.97;100.00;101451.44;4881555;29;20048;-71
2023/01/04 06:18:53;;;;;;;3.88;2.22;;;;;;;9.98;100.00;101428.59;4885373;29;20049;-70
2023/01/04 06:21:20;;;;;;;4.10;1.85;;;;;;;9.99;100.00;101420.66;4887389;29;20056;-70
2023/01/04 06:23:47;;;;;;;2.70;2.10;;;;;;;10.00;100.00;101421.56;4884139;29;20042;-70
2023/01/04 06:26:14;;;;;;;3.03;1.80;;;;;;;10.04;100.00;101433.75;4885645;29;20060;-70
2023/01/04 06:28:41;;;;;;;2.72;1.92;;;;;;;10.06;100.00;101429.31;4882315;29;20129;-70
2023/01/04 06:31:10;;;;;;;6.10;2.13;;;;;;;10.09;100.00;101431.91;4885383;29;20072;-70
2023/01/04 06:33:38;;;;;;;3.28;1.90;;;;;;;10.12;100.00;101445.03;4886035;29;20084;-70
2023/01/04 06:36:06;;;;;;;4.15;2.05;;;;;;;10.14;100.00;101435.31;4879312;29;20046;-69
2023/01/04 06:38:46;;;;;;;2.40;2.20;;;;;;;10.17;100.00;101429.13;4885547;29;20073;-70
2023/01/04 06:41:13;;;;;;;2.55;1.95;;;;;;;10.17;100.00;101437.03;4882539;29;20077;-69
2023/01/04 06:43:40;;;;;;;4.82;1.88;;;;;;;10.18;100.00;101429.09;4880272;29;20156;-73
2023/01/04 06:46:08;;;;;;;3.63;1.95;;;;;;;10.18;100.00;101428.22;4883518;29;20050;-72
2023/01/04 06:48:35;;;;;;;3.75;1.90;;;;;;;10.16;100.00;101425.63;4876049;29;20113;-71
2023/01/04 06:51:01;;;;;;;2.70;2.00;;;;;;;10.16;100.00;101422.13;4881128;29;20916;-71
2023/01/04 06:53:29;;;;;;;3.03;1.88;;;;;;;10.19;100.00;101429.94;4876244;29;20060;-71
2023/01/04 06:55:56;;;;;;;4.72;2.40;;;;;;;10.19;100.00;101432.59;4878463;29;20220;-72
2023/01/04 06:58:24;;;;;;;3.33;2.10;;;;;;;10.21;100.00;101436.97;4873712;29;20751;-70
2023/01/04 07:00:52;;;;;;;5.03;2.08;;;;;;;10.21;100.00;101431.69;4883623;29;20513;-70
2023/01/04 07:03:20;;;;;;;7.00;2.47;;;;;;;10.22;100.00;101433.44;4873784;29;20080;-71
2023/01/04 07:05:47;;;;;;;2.92;1.70;;;;;;;10.24;100.00;101436.03;4848360;29;20089;-71
2023/01/04 07:08:14;;;;;;;3.83;1.75;;;;;;;10.25;100.00;101429.84;4860814;29;20054;-71
2023/01/04 07:10:41;;;;;;;3.40;1.90;;;;;;;10.26;100.00;101428.97;4860089;29;20533;-71
2023/01/04 07:13:09;;;;;;;3.50;2.17;;;;;;;10.29;100.00;101435.94;4862395;29;20118;-71
2023/01/04 07:15:36;;;;;;;1.95;1.50;;;;;;;10.31;100.00;101436.78;4860205;29;20134;-75
2023/01/04 07:18:09;;;;;;;3.35;1.52;;;;;;;10.32;100.00;101420.91;4864386;29;20123;-71
2023/01/04 07:20:37;;;;;;;3.33;1.40;;;;;;;10.41;100.00;101420.75;4861712;29;20045;-71
2023/01/04 07:23:06;;;;;;;1.52;1.20;;;;;;;10.50;100.00;101421.47;4855968;29;20050;-71
2023/01/04 07:25:33;;;;;;;3.15;1.40;;;;;;;10.57;100.00;101423.09;4860206;29;20046;-71
2023/01/04 07:28:00;;;;;;;3.97;1.40;;;;;;;10.65;100.00;101412.38;4860654;29;20045;-71
2023/01/04 07:30:28;;;;;;;1.85;1.10;;;;;;;10.71;100.00;101412.25;4866135;29;20054;-71
2023/01/04 07:32:56;;;;;;;2.17;1.70;;;;;;;10.80;100.00;101400.63;4860400;29;20701;-71
2023/01/04 07:35:23;;;;;;;3.72;1.30;;;;;;;10.88;100.00;101391.63;4863605;29;20209;-72
2023/01/04 07:37:51;;;;;;;3.90;1.20;;;;;;;10.93;99.83;101395.97;4868257;29;20125;-71
2023/01/04 07:40:26;;;;;;;2.33;0.80;;;;;;;10.96;99.80;101403.78;4867783;29;20764;-72
2023/01/04 07:42:56;;;;;;;4.38;1.30;;;;;;;11.06;99.43;101400.03;4861276;29;20080;-72
2023/01/04 07:45:24;;;;;;;3.78;1.00;;;;;;;11.09;99.23;101405.25;4866838;29;20050;-72
2023/01/04 07:47:51;;;;;;;2.42;1.10;;;;;;;11.13;98.67;101399.00;4858608;29;20042;-73
2023/01/04 07:50:18;;;;;;;3.17;1.20;;;;;;;11.15;98.43;101383.97;4866715;29;20056;-73
2023/01/04 07:52:45;;;;;;;1.55;1.33;;;;;;;11.17;98.47;101378.69;4874623;29;20049;-73
2023/01/04 07:55:12;;;;;;;1.73;1.10;;;;;;;11.15;98.56;101360.22;4859455;29;20057;-74
2023/01/04 07:57:39;;;;;;;3.78;1.27;;;;;;;11.18;98.00;101361.94;4869854;29;20078;-75
2023/01/04 08:00:07;;;;;;;1.75;0.95;;;;;;;11.23;97.86;101364.47;4862483;29;20050;-75
2023/01/04 08:02:37;;;;;;;2.00;1.20;;;;;;;11.24;97.57;101363.56;4861619;29;20132;-74
2023/01/04 08:05:05;;;;;;;3.08;1.30;;;;;;;11.24;97.90;101366.19;4877585;29;20173;-74
2023/01/04 08:07:34;;;;;;;2.35;1.08;;;;;;;11.27;97.55;101358.19;4869650;29;20145;-74
2023/01/04 08:10:01;;;;;;;2.80;1.60;;;;;;;11.27;97.33;101347.63;4871379;29;20126;-74
2023/01/04 08:12:28;;;;;;;1.38;1.15;;;;;;;11.26;97.35;101359.97;4868827;29;20137;-75
2023/01/04 08:14:55;;;;;;;2.10;1.10;;;;;;;11.28;96.99;101347.63;4875363;29;20045;-75
2023/01/04 08:17:22;;;;;;;1.73;1.20;;;;;;;11.29;97.24;101354.59;4880136;29;20046;-74
2023/01/04 08:19:48;;;;;;;3.35;1.30;;;;;;;11.28;97.01;101350.25;4877646;29;20049;-74
2023/01/04 08:22:16;;;;;;;4.00;1.30;;;;;;;11.26;96.70;101345.88;4875726;29;20056;-73
2023/01/04 08:24:43;;;;;;;3.85;1.13;;;;;;;11.22;96.55;101353.03;4865993;29;20042;-74
2023/01/04 08:27:10;;;;;;;3.08;1.55;;;;;;;11.17;96.69;101357.56;4863728;29;20053;-74
2023/01/04 08:29:37;;;;;;;5.28;1.70;;;;;;;11.15;96.75;101362.00;4865273;29;20576;-73
2023/01/04 08:32:05;;;;;;;3.30;1.25;;;;;;;11.13;96.62;101350.63;4866337;29;20046;-72
2023/01/04 08:34:32;;;;;;;2.90;1.15;;;;;;;11.12;96.63;101349.75;4867676;29;20126;-74
2023/01/04 08:36:59;;;;;;;4.03;1.10;;;;;;;11.11;96.91;101360.34;4866825;29;20945;-73
2023/01/04 08:39:28;;;;;;;2.55;1.17;;;;;;;11.13;96.98;101353.25;4858335;29;20088;-74
2023/01/04 08:41:56;;;;;;;2.75;0.95;;;;;;;11.12;96.87;101362.97;4864214;29;20045;-75
2023/01/04 08:44:37;;;;;;;2.08;0.90;;;;;;;11.14;96.82;101349.72;4866945;29;20170;-75
2023/01/04 08:47:04;;;;;;;2.50;0.80;;;;;;;11.18;96.80;101352.22;4869457;29;20045;-73
2023/01/04 08:49:32;;;;;;;2.97;0.93;;;;;;;11.23;96.56;101359.19;4862270;29;20078;-73
2023/01/04 08:51:59;;;;;;;2.83;0.80;;;;;;;11.24;96.48;101358.28;4865974;29;21050;-73
2023/01/04 08:54:26;;;;;;;5.47;0.90;;;;;;;11.30;96.12;101360.75;4862977;29;20107;-74
2023/01/04 08:56:53;;;;;;;2.80;0.90;;;;;;;11.32;96.27;101361.59;4865577;29;20048;-73
2023/01/04 08:59:20;;;;;;;2.33;0.95;;;;;;;11.35;96.12;101358.84;4865691;29;20050;-74
2023/01/04 09:01:47;;;;;;;2.20;0.65;;;;;;;11.39;95.81;101360.53;4866594;29;20050;-75
2023/01/04 09:04:15;;;;;;;3.15;0.95;;;;;;;11.42;95.56;101370.13;4868371;29;20042;-74
2023/01/04 09:06:42;;;;;;;4.03;0.95;;;;;;;11.42;95.71;101367.50;4863416;29;20053;-74
2023/01/04 09:09:09;;;;;;;3.03;0.70;;;;;;;11.44;95.51;101342.81;4866941;29;20612;-75
2023/01/04 09:11:37;;;;;;;3.83;1.02;;;;;;;11.50;95.26;101366.41;4863065;29;20091;-75
2023/01/04 09:14:07;;;;;;;2.65;0.80;;;;;;;11.48;95.20;101362.94;4861500;29;20832;-74
2023/01/04 09:16:37;;;;;;;7.05;1.00;;;;;;;11.48;95.44;101357.66;4856766;29;20046;-74
2023/01/04 09:19:05;;;;;;;5.20;0.80;;;;;;;11.52;95.37;101352.28;4860607;29;20060;-75
2023/01/04 09:21:32;;;;;;;4.47;0.88;;;;;;;11.53;95.39;101357.53;4866286;29;20094;-75
2023/01/04 09:23:59;;;;;;;4.18;0.90;;;;;;;11.55;95.33;101353.06;4860815;29;20069;-74
2023/01/04 09:26:27;;;;;;;4.00;0.70;;;;;;;11.61;94.89;101349.41;4861647;29;20046;-74
2023/01/04 09:28:55;;;;;;;4.10;0.80;;;;;;;11.62;95.18;101352.00;4860803;29;20057;-73
2023/01/04 09:31:26;;;;;;;3.00;0.70;;;;;;;11.67;95.03;101343.09;4864766;29;20503;-73
2023/01/04 09:33:57;;;;;;;3.88;0.90;;;;;;;11.70;94.69;101349.16;4861465;29;20049;-73
2023/01/04 09:36:48;;;;;;;4.65;0.95;;;;;;;11.74;94.61;101347.28;4857434;29;20056;-74
2023/01/04 09:39:16;;;;;;;2.55;0.90;;;;;;;11.72;94.73;101323.56;4865011;29;20050;-74
2023/01/04 09:42:04;;;;;;;5.25;0.75;;;;;;;11.76;94.52;101348.13;4863991;29;20124;-74
2023/01/04 09:44:50;;;;;;;2.78;0.70;;;;;;;11.77;94.75;101342.78;4865258;29;20052;-73
2023/01/04 09:47:50;;;;;;;3.47;0.73;;;;;;;11.79;94.63;101343.63;4873058;29;20049;-74
2023/01/04 09:50:23;;;;;;;4.22;1.15;;;;;;;11.79;94.78;101350.69;4857727;29;20050;-73
2023/01/04 09:52:56;;;;;;;5.25;0.90;;;;;;;11.81;94.75;101348.84;4867917;29;20608;-73
2023/01/04 09:55:33;;;;;;;3.15;0.77;;;;;;;11.86;94.66;101338.16;4858353;29;20038;-72
2023/01/04 09:58:38;;;;;;;2.40;0.70;;;;;;;11.92;94.75;101349.44;4864864;29;20054;-71
2023/01/04 10:01:22;;;;;;;4.07;0.90;;;;;;;11.98;94.38;101351.06;4864286;29;20570;-72
2023/01/04 10:04:05;;;;;;;3.10;0.77;;;;;;;11.99;94.52;101349.31;4862047;29;20045;-73
2023/01/04 10:06:34;;;;;;;5.03;0.82;;;;;;;12.00;94.36;101343.97;4868616;29;20052;-72
2023/01/04 10:09:09;;;;;;;3.78;0.85;;;;;;;12.04;94.26;101350.03;4866158;29;20525;-72
2023/01/04 10:11:57;;;;;;;3.38;1.00;;;;;;;12.07;94.48;101348.16;4864204;29;20506;-73
2023/01/04 10:14:33;;;;;;;4.10;0.98;;;;;;;12.09;94.45;101346.34;4862719;29;20046;-73
2023/01/04 10:17:40;;;;;;;2.28;0.68;;;;;;;12.11;94.16;101338.38;4862308;29;20725;-73
2023/01/04 10:20:45;;;;;;;4.43;1.17;;;;;;;12.09;94.37;101329.66;4860626;29;20045;-73
2023/01/04 10:24:30;;;;;;;2.40;0.73;;;;;;;12.07;94.51;101332.31;4862573;29;20232;-73
2023/01/04 10:27:09;;;;;;;4.75;2.50;;;;;;;12.08;94.77;101339.31;4864414;29;20069;-73
2023/01/04 10:30:15;;;;;;;4.95;2.10;;;;;;;12.06;94.97;101335.84;4860398;29;20699;-72
2023/01/04 10:32:48;;;;;;;16.08;13.32;;;;;;;12.06;95.04;101340.28;4846253;29;20149;-73
2023/01/04 10:35:21;;;;;;;6.10;3.67;;;;;;;12.06;95.25;101343.78;4858572;29;20104;-72
2023/01/04 10:37:58;;;;;;;13.90;12.50;;;;;;;12.02;95.30;101344.81;4863952;29;20050;-72
2023/01/04 10:40:33;;;;;;;9.02;7.65;;;;;;;11.99;95.39;101338.75;4860842;29;20046;-71
2023/01/04 10:43:10;;;;;;;7.15;6.18;;;;;;;11.94;95.98;101337.06;4857991;29;20050;-71
2023/01/04 10:45:59;;;;;;;7.60;5.82;;;;;;;11.92;95.94;101332.72;4863524;29;20054;-71
2023/01/04 10:49:06;;;;;;;5.68;1.38;;;;;;;11.92;96.04;101330.94;4871829;29;20136;-71
2023/01/04 10:51:50;;;;;;;20.02;12.65;;;;;;;11.87;96.28;101340.78;4863006;29;20070;-72
2023/01/04 10:54:37;;;;;;;7.30;2.97;;;;;;;11.84;96.52;101329.44;4862807;29;20053;-72
2023/01/04 10:57:41;;;;;;;2.28;1.35;;;;;;;11.85;96.65;101334.66;4863099;29;20049;-72
2023/01/04 11:00:25;;;;;;;2.72;1.00;;;;;;;11.80;96.97;101315.44;4858469;29;20117;-71
2023/01/04 11:03:24;;;;;;;2.73;1.20;;;;;;;11.81;97.14;101319.78;4864078;29;20497;-73
2023/01/04 11:06:22;;;;;;;4.55;1.73;;;;;;;11.80;97.34;101321.59;4863212;29;20128;-73
2023/01/04 11:08:58;;;;;;;4.13;1.80;;;;;;;11.81;97.54;101314.50;4865553;29;20061;-72
2023/01/04 11:11:34;;;;;;;4.93;2.13;;;;;;;11.81;97.48;101315.41;4867859;29;20145;-73
2023/01/04 11:14:03;;;;;;;3.30;1.55;;;;;;;11.84;97.34;101316.22;4870452;29;20049;-74
2023/01/04 11:16:30;;;;;;;3.53;1.80;;;;;;;11.84;97.57;101324.16;4867743;29;20053;-72
2023/01/04 11:18:58;;;;;;;4.57;1.55;;;;;;;11.83;97.72;101312.69;4866366;29;20136;-72
2023/01/04 11:21:34;;;;;;;2.65;1.42;;;;;;;11.80;97.74;101318.94;4861907;29;20124;-71
2023/01/04 11:24:06;;;;;;;3.03;1.33;;;;;;;11.79;97.78;101327.78;4864329;29;20110;-72
2023/01/04 11:26:55;;;;;;;4.13;1.00;;;;;;;11.81;98.00;101311.88;4860796;29;20053;-72
2023/01/04 11:29:47;;;;;;;4.93;1.40;;;;;;;11.81;97.86;101312.75;4869162;29;20506;-71
2023/01/04 11:32:43;;;;;;;5.10;1.02;;;;;;;11.81;98.21;101320.69;4864544;29;20149;-72
2023/01/04 11:35:10;;;;;;;2.28;1.20;;;;;;;11.80;98.51;101307.53;4872644;29;20049;-71
2023/01/04 11:37:40;;;;;;;2.88;1.10;;;;;;;11.79;98.75;101311.94;4863404;29;20137;-72
2023/01/04 11:40:17;;;;;;;4.78;1.10;;;;;;;11.83;98.50;101318.00;4862196;29;20050;-72
2023/01/04 11:42:48;;;;;;;2.92;0.95;;;;;;;11.85;98.48;101310.03;4865572;29;20141;-72
2023/01/04 11:45:26;;;;;;;3.63;1.10;;;;;;;11.85;98.57;101312.69;4860745;29;20074;-71
2023/01/04 11:47:57;;;;;;;2.47;0.80;;;;;;;11.87;98.56;101298.50;4864946;29;20054;-71
2023/01/04 11:50:44;;;;;;;2.72;0.70;;;;;;;11.94;98.58;101302.69;4863009;29;20089;-71
2023/01/04 11:53:24;;;;;;;1.50;0.65;;;;;;;11.93;98.49;101303.59;4864061;29;20147;-71
2023/01/04 11:56:10;;;;;;;4.38;3.22;;;;;;;11.94;98.47;101305.34;4868793;29;20420;-71
2023/01/04 11:58:39;;;;;;;9.82;8.23;;;;;;;11.92;98.46;101309.81;4856725;29;20093;-71
2023/01/04 12:01:23;;;;;;;1.25;0.60;;;;;;;11.93;98.54;101315.97;4860832;29;20050;-71
2023/01/04 12:03:51;;;;;;;;;;;;;;;11.88;98.66;101310.81;4864349;29;20061;-72
2023/01/04 12:06:36;;;;;;;3.88;2.47;;;;;;;11.83;98.99;101311.84;4873597;29;19935;-72
2023/01/04 12:09:03;;;;;;;3.72;1.45;;;;;;;11.83;99.07;101303.94;4868753;29;20526;-72
2023/01/04 12:11:35;;;;;;;3.40;2.45;;;;;;;11.84;98.88;101306.50;4863628;29;20054;-72
2023/01/04 12:14:04;;;;;;;4.82;1.65;;;;;;;11.90;98.98;101292.25;4860214;29;20522;-71
2023/01/04 12:16:50;;;;;;;1.65;1.20;;;;;;;11.94;99.00;101288.63;4863042;29;20046;-73
2023/01/04 12:19:20;;;;;;;4.35;3.17;;;;;;;11.97;98.90;101283.25;4870129;29;20536;-72
2023/01/04 12:21:54;;;;;;;1.45;1.08;;;;;;;11.99;98.68;101299.97;4861800;29;20199;-72
2023/01/04 12:24:27;;;;;;;3.63;3.13;;;;;;;11.99;98.63;101304.38;4875534;29;20045;-73
2023/01/04 12:26:56;;;;;;;2.40;1.70;;;;;;;11.98;98.93;101300.00;4862548;29;20040;-73
2023/01/04 12:29:23;;;;;;;0.38;0.32;;;;;;;11.98;98.51;101294.72;4864915;29;20399;-74
2023/01/04 12:31:59;;;;;;;1.65;0.63;;;;;;;11.97;98.97;101307.03;4864282;29;20049;-73
2023/01/04 12:34:29;;;;;;;1.27;0.50;;;;;;;11.97;99.03;101301.75;4864177;29;20056;-72
2023/01/04 12:37:02;;;;;;;1.77;0.45;;;;;;;11.96;99.18;101307.94;4868195;29;20163;-73
2023/01/04 12:39:42;;;;;;;1.45;0.30;;;;;;;12.00;98.93;101316.69;4865511;29;20086;-74
2023/01/04 12:42:17;;;;;;;0.60;0.30;;;;;;;12.01;98.85;101323.69;4877792;29;20058;-75